Time;durP1;ratioP1;P1;durP2;ratioP2;P2;SDS_P1;SDS_P2;PMS_P1;PMS_P2;Temp;Humidity;BMP_temperature;BMP_pressure;BME280_temperature;BME280_humidity;BME280_pressure;Samples;Min_cycle;Max_cycle;Signal;HPM_P1;HPM_P2
2023/09/13 00:01:49;;;;;;;2.87;1.17;;;17.30;99.90;;;;;;5016264;28;20218;-90
2023/09/13 00:04:14;;;;;;;0.97;0.90;;;17.40;99.90;;;;;;5016139;28;20199;-89
2023/09/13 00:06:40;;;;;;;3.60;1.00;;;17.40;99.90;;;;;;5033261;28;20667;-89
2023/09/13 00:09:09;;;;;;;2.17;1.43;;;17.50;99.90;;;;;;5017249;28;20211;-90
2023/09/13 00:11:38;;;;;;;1.47;0.87;;;17.50;99.90;;;;;;5017784;28;20546;-89
2023/09/13 00:14:04;;;;;;;2.33;0.90;;;17.50;99.90;;;;;;5017495;28;20194;-89
2023/09/13 00:16:30;;;;;;;5.23;1.63;;;17.50;99.90;;;;;;5016288;28;20320;-89
2023/09/13 00:18:55;;;;;;;3.83;0.90;;;17.50;99.90;;;;;;5032875;28;21182;-90
2023/09/13 00:21:21;;;;;;;3.77;1.00;;;17.40;99.90;;;;;;5015621;28;20222;-92
2023/09/13 00:23:47;;;;;;;1.07;0.87;;;17.40;99.90;;;;;;5016224;28;20292;-89
2023/09/13 00:26:14;;;;;;;5.27;1.10;;;17.40;99.90;;;;;;5016426;28;20186;-90
2023/09/13 00:28:39;;;;;;;2.77;1.00;;;17.50;99.90;;;;;;5032849;28;20218;-90
2023/09/13 00:31:09;;;;;;;0.60;0.60;;;17.50;99.90;;;;;;5016840;28;20317;-91
2023/09/13 00:33:34;;;;;;;2.90;1.13;;;17.50;99.90;;;;;;5031943;28;20694;-90
2023/09/13 00:36:00;;;;;;;2.90;0.90;;;17.50;99.90;;;;;;5016962;28;20234;-90
2023/09/13 00:38:26;;;;;;;1.13;0.83;;;17.60;99.90;;;;;;5017462;28;20186;-92
2023/09/13 00:40:52;;;;;;;1.17;0.90;;;17.50;99.90;;;;;;5000009;28;20222;-91
2023/09/13 00:43:18;;;;;;;2.23;0.93;;;17.60;99.90;;;;;;5016873;28;20222;-92
2023/09/13 00:45:45;;;;;;;0.80;0.80;;;17.60;99.90;;;;;;5015512;28;20219;-92
2023/09/13 00:48:11;;;;;;;1.90;1.17;;;17.60;99.90;;;;;;5031038;28;20222;-93
2023/09/13 00:50:37;;;;;;;2.77;0.60;;;17.60;99.90;;;;;;5016038;28;20562;-91
2023/09/13 00:53:04;;;;;;;0.63;0.60;;;17.60;99.90;;;;;;4997193;28;20187;-91
2023/09/13 00:55:31;;;;;;;2.50;0.70;;;17.60;99.90;;;;;;5011785;28;20218;-91
2023/09/13 00:57:57;;;;;;;0.90;0.70;;;17.60;99.90;;;;;;4998408;28;20341;-92
2023/09/13 01:00:26;;;;;;;0.70;0.70;;;17.60;99.90;;;;;;5014379;28;20218;-91
2023/09/13 01:02:53;;;;;;;1.97;1.13;;;17.70;99.90;;;;;;5030010;28;23100;-91
2023/09/13 01:05:19;;;;;;;2.33;1.50;;;17.60;99.90;;;;;;5016460;28;20639;-93
2023/09/13 01:07:46;;;;;;;0.63;0.53;;;17.60;99.90;;;;;;5015659;28;20214;-93
2023/09/13 01:10:12;;;;;;;4.30;0.73;;;17.70;99.90;;;;;;4998247;28;20232;-92
2023/09/13 01:12:38;;;;;;;0.80;0.77;;;17.70;99.90;;;;;;5015454;28;20230;-92
2023/09/13 01:15:06;;;;;;;1.87;1.20;;;17.70;99.90;;;;;;5031086;28;20237;-91
2023/09/13 01:17:53;;;;;;;1.10;1.10;;;17.70;99.90;;;;;;5031199;28;20286;-91
2023/09/13 01:20:21;;;;;;;1.03;1.03;;;17.70;99.90;;;;;;5047911;28;20254;-92
2023/09/13 01:23:13;;;;;;;5.37;1.47;;;17.70;99.90;;;;;;5046645;28;20230;-92
2023/09/13 01:25:53;;;;;;;2.40;1.13;;;17.60;99.90;;;;;;5023016;28;20222;-92
2023/09/13 01:28:39;;;;;;;1.73;1.20;;;17.60;99.90;;;;;;5047855;28;20211;-91
2023/09/13 01:31:09;;;;;;;3.60;0.90;;;17.50;99.90;;;;;;5030612;28;20287;-92
2023/09/13 01:33:35;;;;;;;1.33;1.00;;;17.50;99.90;;;;;;5030843;28;20219;-91
2023/09/13 01:36:01;;;;;;;2.30;0.93;;;17.50;99.90;;;;;;5015082;28;20226;-91
2023/09/13 01:38:28;;;;;;;8.30;1.73;;;17.40;99.90;;;;;;5015566;28;20655;-92
2023/09/13 01:41:08;;;;;;;4.63;1.13;;;17.30;99.90;;;;;;5030917;28;20211;-92
2023/09/13 01:43:35;;;;;;;4.07;1.00;;;17.10;99.90;;;;;;5030139;28;20214;-92
2023/09/13 01:46:02;;;;;;;3.30;0.83;;;17.00;99.90;;;;;;5029968;28;20215;-92
2023/09/13 01:48:29;;;;;;;3.43;0.60;;;16.90;99.90;;;;;;5014622;28;20800;-92
2023/09/13 01:50:56;;;;;;;4.33;0.90;;;16.80;99.90;;;;;;5013789;28;20218;-92
2023/09/13 01:53:21;;;;;;;3.50;0.87;;;16.70;99.90;;;;;;5027641;28;20232;-92
2023/09/13 01:55:47;;;;;;;1.90;0.87;;;16.60;99.90;;;;;;4994561;28;20222;-91
2023/09/13 01:58:13;;;;;;;2.67;0.80;;;16.60;99.90;;;;;;5013126;28;20211;-91
2023/09/13 02:00:39;;;;;;;3.20;1.17;;;16.50;99.90;;;;;;5014609;28;20214;-92
2023/09/13 02:03:06;;;;;;;1.53;1.20;;;16.50;99.90;;;;;;4998699;28;20754;-92
2023/09/13 02:05:31;;;;;;;3.03;1.27;;;16.60;99.90;;;;;;5014984;28;20186;-93
2023/09/13 02:07:57;;;;;;;1.63;1.37;;;16.60;99.90;;;;;;5013974;28;20329;-92
2023/09/13 02:10:23;;;;;;;1.70;1.30;;;16.60;99.90;;;;;;5014422;28;20770;-93
2023/09/13 02:12:48;;;;;;;1.97;0.90;;;16.60;99.90;;;;;;4998571;28;20218;-92
2023/09/13 02:15:14;;;;;;;2.07;1.30;;;16.60;99.90;;;;;;5001767;28;20261;-92
2023/09/13 02:17:41;;;;;;;6.47;1.57;;;16.60;99.90;;;;;;5018428;28;20191;-92
2023/09/13 02:20:07;;;;;;;3.30;0.93;;;16.50;99.90;;;;;;5034735;28;20189;-91
2023/09/13 02:22:33;;;;;;;1.87;1.33;;;16.40;99.90;;;;;;5018285;28;20253;-90
2023/09/13 02:24:59;;;;;;;3.53;1.47;;;16.40;99.90;;;;;;5002544;28;20214;-93
2023/09/13 02:27:25;;;;;;;1.67;1.23;;;16.40;99.90;;;;;;5002001;28;20242;-91
2023/09/13 02:29:50;;;;;;;1.33;0.90;;;16.40;99.90;;;;;;5017641;28;20200;-92
2023/09/13 02:32:16;;;;;;;2.20;1.17;;;16.40;99.90;;;;;;5018786;28;20272;-92
2023/09/13 02:34:46;;;;;;;17.33;1.70;;;16.40;99.90;;;;;;5000218;28;20718;-93
2023/09/13 02:37:11;;;;;;;2.80;1.13;;;16.40;99.90;;;;;;5017047;28;20217;-93
2023/09/13 02:39:39;;;;;;;2.07;1.00;;;16.30;99.90;;;;;;5018267;28;20215;-92
2023/09/13 02:42:06;;;;;;;1.00;0.90;;;16.30;99.90;;;;;;5017642;28;20215;-92
2023/09/13 02:44:33;;;;;;;3.03;0.77;;;16.40;99.90;;;;;;5017991;28;20639;-92
2023/09/13 02:46:59;;;;;;;2.53;1.20;;;16.40;99.90;;;;;;5033229;28;20302;-92
2023/09/13 02:49:25;;;;;;;1.43;1.20;;;16.30;99.90;;;;;;5016717;28;20222;-93
2023/09/13 02:51:52;;;;;;;0.93;0.90;;;16.30;99.90;;;;;;5016450;28;20203;-91
2023/09/13 02:54:18;;;;;;;2.53;1.03;;;16.30;99.90;;;;;;5029883;28;20321;-93
2023/09/13 02:56:45;;;;;;;6.87;1.67;;;16.20;99.90;;;;;;5030410;28;20679;-93
2023/09/13 02:59:11;;;;;;;4.30;1.33;;;16.20;99.90;;;;;;5034879;28;20186;-94
2023/09/13 03:01:37;;;;;;;1.60;1.00;;;16.30;99.90;;;;;;5016858;28;20215;-92
2023/09/13 03:04:03;;;;;;;2.07;1.33;;;16.20;99.90;;;;;;5017324;28;20217;-93
2023/09/13 03:06:29;;;;;;;8.30;2.43;;;16.20;99.90;;;;;;5016640;28;20221;-94
2023/09/13 03:08:56;;;;;;;1.20;1.00;;;16.20;99.90;;;;;;5017489;28;20211;-94
2023/09/13 03:11:21;;;;;;;2.30;1.00;;;16.10;99.90;;;;;;5017533;28;20201;-93
2023/09/13 03:13:47;;;;;;;1.10;0.87;;;16.10;99.90;;;;;;5000393;28;20279;-94
2023/09/13 03:16:18;;;;;;;2.87;0.87;;;16.00;99.90;;;;;;5016786;28;20222;-94
2023/09/13 03:18:45;;;;;;;0.93;0.93;;;16.00;99.90;;;;;;5033393;28;20223;-93
2023/09/13 03:21:12;;;;;;;3.93;1.10;;;16.00;99.90;;;;;;5032888;28;20218;-92
2023/09/13 03:23:40;;;;;;;7.20;1.20;;;15.90;99.90;;;;;;5032585;28;20190;-92
2023/09/13 03:26:18;;;;;;;1.50;0.70;;;15.80;99.90;;;;;;5016194;28;20218;-93
2023/09/13 03:28:45;;;;;;;1.77;0.73;;;15.80;99.90;;;;;;5032452;28;20579;-92
2023/09/13 03:31:17;;;;;;;2.50;0.80;;;15.80;99.90;;;;;;5031715;28;20230;-93
2023/09/13 03:33:44;;;;;;;2.90;0.70;;;15.70;99.90;;;;;;5031609;28;20332;-93
2023/09/13 03:36:11;;;;;;;4.43;1.20;;;15.70;99.90;;;;;;5031251;28;20269;-94
2023/09/13 03:38:39;;;;;;;6.90;0.83;;;15.70;99.90;;;;;;5016548;28;20178;-94
2023/09/13 03:41:10;;;;;;;2.40;0.90;;;15.60;99.90;;;;;;5032501;28;20179;-94
2023/09/13 03:43:36;;;;;;;0.97;0.87;;;15.60;99.90;;;;;;5032659;28;20202;-95
2023/09/13 03:46:03;;;;;;;1.27;1.17;;;15.60;99.90;;;;;;5016418;28;20218;-94
2023/09/13 03:48:30;;;;;;;7.03;1.40;;;15.60;99.90;;;;;;5015916;28;20214;-94
2023/09/13 03:50:57;;;;;;;1.77;1.50;;;15.60;99.90;;;;;;4999974;28;20214;-94
2023/09/13 03:53:23;;;;;;;2.47;1.03;;;15.60;99.90;;;;;;5030004;28;20182;-94
2023/09/13 03:55:50;;;;;;;2.17;0.87;;;15.60;99.90;;;;;;5012366;28;20630;-96
2023/09/13 03:58:16;;;;;;;4.23;1.00;;;15.50;99.90;;;;;;5017112;28;20601;-94
2023/09/13 04:00:41;;;;;;;2.23;1.10;;;15.50;99.90;;;;;;5032091;28;20218;-94
2023/09/13 04:03:07;;;;;;;2.60;1.23;;;15.50;99.90;;;;;;5015615;28;20343;-94
2023/09/13 04:05:33;;;;;;;5.97;1.53;;;15.50;99.90;;;;;;5016075;28;20199;-94
2023/09/13 04:07:59;;;;;;;1.57;1.30;;;15.50;99.90;;;;;;5016758;28;20198;-95
2023/09/13 04:10:25;;;;;;;2.70;1.10;;;15.40;99.90;;;;;;4999535;28;20230;-94
2023/09/13 04:12:51;;;;;;;5.70;1.30;;;15.40;99.90;;;;;;5031894;28;20225;-94
2023/09/13 04:15:17;;;;;;;3.07;1.43;;;15.30;99.90;;;;;;5015940;28;20860;-95
2023/09/13 04:17:43;;;;;;;6.30;0.93;;;15.30;99.90;;;;;;5016350;28;20554;-95
2023/09/13 04:20:10;;;;;;;1.03;0.83;;;15.30;99.90;;;;;;5017902;28;20739;-93
2023/09/13 04:22:36;;;;;;;15.13;1.80;;;15.10;99.90;;;;;;5032233;28;20276;-94
2023/09/13 04:25:03;;;;;;;5.40;1.17;;;15.10;99.90;;;;;;4999464;28;20226;-93
2023/09/13 04:27:29;;;;;;;7.37;1.30;;;15.10;99.90;;;;;;5014448;28;20706;-96
2023/09/13 04:29:57;;;;;;;4.40;0.93;;;15.20;99.90;;;;;;5001545;28;20220;-94
2023/09/13 04:32:24;;;;;;;5.90;0.63;;;15.00;99.90;;;;;;5018506;28;20234;-96
2023/09/13 04:34:50;;;;;;;4.50;0.97;;;15.00;99.90;;;;;;5015223;28;20230;-92
2023/09/13 04:37:19;;;;;;;6.07;1.00;;;15.00;99.90;;;;;;5013914;28;20622;-91
2023/09/13 04:39:45;;;;;;;8.80;1.13;;;15.00;99.90;;;;;;5015861;28;20222;-91
2023/09/13 04:42:11;;;;;;;2.33;1.27;;;15.00;99.90;;;;;;5014918;28;20214;-91
2023/09/13 04:44:37;;;;;;;2.30;1.20;;;15.00;99.90;;;;;;5032063;28;20220;-91
2023/09/13 04:47:03;;;;;;;2.77;1.13;;;15.10;99.90;;;;;;5015438;28;20202;-92
2023/09/13 04:49:29;;;;;;;4.20;0.90;;;15.00;99.90;;;;;;5031405;28;20753;-91
2023/09/13 04:51:57;;;;;;;0.60;0.60;;;14.90;99.90;;;;;;5013867;28;20253;-90
2023/09/13 04:54:23;;;;;;;2.77;1.17;;;14.80;99.90;;;;;;5011234;28;20210;-90
2023/09/13 04:56:49;;;;;;;2.47;1.60;;;14.70;99.90;;;;;;5028593;28;20210;-91
2023/09/13 04:59:15;;;;;;;1.07;0.93;;;14.60;99.90;;;;;;5014749;28;20186;-89
2023/09/13 05:01:41;;;;;;;1.13;0.77;;;14.60;99.90;;;;;;5014794;28;20202;-90
2023/09/13 05:04:07;;;;;;;1.27;0.97;;;14.60;99.90;;;;;;5014144;28;20218;-90
2023/09/13 05:06:33;;;;;;;1.10;0.73;;;14.60;99.90;;;;;;5014228;28;20568;-90
2023/09/13 05:08:59;;;;;;;1.33;1.33;;;14.60;99.90;;;;;;5031165;28;20221;-89
2023/09/13 05:11:25;;;;;;;2.30;0.73;;;14.60;99.90;;;;;;5014567;28;20213;-91
2023/09/13 05:14:07;;;;;;;2.07;1.20;;;14.60;99.90;;;;;;5013837;28;20206;-90
2023/09/13 05:16:32;;;;;;;0.83;0.83;;;14.60;99.90;;;;;;5016618;28;20232;-91
2023/09/13 05:18:58;;;;;;;1.90;1.37;;;14.80;99.90;;;;;;4998603;28;20313;-92
2023/09/13 05:21:24;;;;;;;0.50;0.50;;;14.80;99.90;;;;;;5014918;28;20230;-90
2023/09/13 05:23:53;;;;;;;1.13;0.60;;;14.80;99.90;;;;;;5014472;28;20701;-90
2023/09/13 05:26:18;;;;;;;2.33;0.93;;;14.80;99.90;;;;;;4999548;28;20282;-92
2023/09/13 05:28:45;;;;;;;1.20;1.00;;;14.80;99.90;;;;;;5014454;28;20289;-91
2023/09/13 05:31:11;;;;;;;3.83;0.80;;;14.70;99.90;;;;;;5013216;28;20216;-91
2023/09/13 05:33:37;;;;;;;3.40;1.67;;;14.70;99.90;;;;;;5027497;28;20210;-93
2023/09/13 05:36:12;;;;;;;0.90;0.90;;;14.70;99.90;;;;;;5011740;28;20722;-92
2023/09/13 05:38:38;;;;;;;1.70;0.80;;;14.80;99.90;;;;;;5048768;28;20810;-92
2023/09/13 05:41:11;;;;;;;1.53;1.43;;;14.70;99.90;;;;;;5031769;28;20185;-92
2023/09/13 05:43:39;;;;;;;1.17;0.50;;;14.60;99.90;;;;;;5014774;28;20223;-92
2023/09/13 05:46:05;;;;;;;8.07;1.03;;;14.70;99.90;;;;;;5014686;28;20226;-92
2023/09/13 05:48:33;;;;;;;0.37;0.37;;;14.70;99.90;;;;;;5032512;28;20690;-92
2023/09/13 05:50:59;;;;;;;3.37;0.47;;;14.70;99.90;;;;;;5032198;28;20223;-92
2023/09/13 05:53:24;;;;;;;0.90;0.50;;;14.70;99.90;;;;;;5011762;28;20559;-93
2023/09/13 05:55:50;;;;;;;16.43;1.70;;;14.80;99.90;;;;;;4994642;28;20222;-93
2023/09/13 05:58:17;;;;;;;1.70;1.03;;;14.80;99.90;;;;;;5012741;28;20217;-93
2023/09/13 06:00:45;;;;;;;2.43;0.60;;;14.80;99.90;;;;;;5030902;28;20284;-91
2023/09/13 06:03:11;;;;;;;1.27;0.80;;;14.80;99.90;;;;;;5030500;28;20625;-91
2023/09/13 06:05:37;;;;;;;2.73;0.70;;;14.80;99.90;;;;;;5030342;28;20195;-93
2023/09/13 06:08:03;;;;;;;0.33;0.30;;;14.80;99.90;;;;;;5014679;28;20191;-93
2023/09/13 06:10:28;;;;;;;0.80;0.80;;;14.80;99.90;;;;;;5014031;28;20229;-92
2023/09/13 06:12:54;;;;;;;0.73;0.70;;;14.80;99.90;;;;;;5013544;28;20223;-93
2023/09/13 06:15:20;;;;;;;2.40;0.63;;;14.80;99.90;;;;;;4997990;28;20280;-93
2023/09/13 06:17:46;;;;;;;2.13;0.60;;;14.80;99.90;;;;;;5030454;28;20190;-93
2023/09/13 06:20:12;;;;;;;0.30;0.30;;;14.80;99.90;;;;;;5030553;28;20183;-93
2023/09/13 06:22:38;;;;;;;3.77;0.60;;;14.80;99.90;;;;;;5014198;28;20225;-94
2023/09/13 06:25:04;;;;;;;0.63;0.63;;;14.70;99.90;;;;;;5014545;28;20206;-92
2023/09/13 06:27:30;;;;;;;0.60;0.60;;;14.60;99.90;;;;;;5013240;28;20718;-91
2023/09/13 06:29:56;;;;;;;0.40;0.40;;;14.70;99.90;;;;;;5029742;28;20207;-92
2023/09/13 06:32:22;;;;;;;0.80;0.47;;;14.80;99.90;;;;;;5014297;28;20254;-90
2023/09/13 06:34:48;;;;;;;1.37;0.73;;;14.80;99.90;;;;;;5013260;28;20218;-92
2023/09/13 06:37:14;;;;;;;5.00;0.70;;;14.80;99.90;;;;;;4997063;28;20584;-91
2023/09/13 06:39:39;;;;;;;0.40;0.40;;;14.90;99.90;;;;;;5013891;28;20286;-91
2023/09/13 06:42:06;;;;;;;0.67;0.67;;;14.90;99.90;;;;;;4997731;28;20621;-90
2023/09/13 06:44:33;;;;;;;0.60;0.60;;;15.00;99.90;;;;;;5014439;28;20221;-91
2023/09/13 06:46:59;;;;;;;1.00;0.80;;;15.00;99.90;;;;;;4997980;28;20218;-90
2023/09/13 06:49:24;;;;;;;0.40;0.40;;;15.00;99.90;;;;;;5012637;28;20211;-91
2023/09/13 06:51:51;;;;;;;0.30;0.30;;;15.00;99.90;;;;;;5014438;28;20233;-88
2023/09/13 06:54:18;;;;;;;3.27;0.90;;;15.00;99.90;;;;;;5009827;28;20215;-89
2023/09/13 06:56:44;;;;;;;1.47;0.73;;;15.10;99.90;;;;;;5010817;28;20651;-92
2023/09/13 06:59:10;;;;;;;2.37;0.87;;;15.10;99.90;;;;;;5029434;28;20182;-90
2023/09/13 07:01:37;;;;;;;1.90;0.70;;;15.10;99.90;;;;;;5032988;28;20213;-90
2023/09/13 07:04:03;;;;;;;3.13;0.80;;;15.10;99.90;;;;;;5017077;28;20206;-89
2023/09/13 07:06:29;;;;;;;4.90;1.17;;;15.10;99.90;;;;;;5017063;28;20246;-90
2023/09/13 07:08:55;;;;;;;1.93;1.07;;;15.20;99.90;;;;;;5016511;28;20225;-89
2023/09/13 07:11:22;;;;;;;0.53;0.47;;;15.20;99.90;;;;;;5016948;28;20639;-89
2023/09/13 07:13:49;;;;;;;13.77;1.67;;;15.30;99.90;;;;;;5016471;28;20222;-89
2023/09/13 07:16:14;;;;;;;12.00;2.13;;;15.50;99.90;;;;;;5032086;28;20218;-90
2023/09/13 07:18:40;;;;;;;12.77;2.20;;;15.50;99.90;;;;;;5016650;28;20222;-90
2023/09/13 07:21:06;;;;;;;1.13;0.60;;;15.50;99.90;;;;;;5016385;28;20214;-91
2023/09/13 07:23:32;;;;;;;2.00;1.03;;;15.50;99.90;;;;;;5017130;28;20179;-90
2023/09/13 07:25:59;;;;;;;9.50;1.70;;;15.60;99.90;;;;;;5017052;28;20233;-92
2023/09/13 07:28:25;;;;;;;2.47;0.83;;;15.60;99.90;;;;;;5016364;28;20732;-90
2023/09/13 07:30:51;;;;;;;7.53;1.70;;;15.50;99.90;;;;;;5016051;28;20297;-90
2023/09/13 07:33:17;;;;;;;5.70;1.80;;;15.60;99.90;;;;;;5032592;28;20309;-88
2023/09/13 07:35:43;;;;;;;0.90;0.80;;;15.70;99.90;;;;;;5016900;28;20234;-89
2023/09/13 07:38:10;;;;;;;7.07;1.40;;;15.60;99.90;;;;;;5015585;28;20195;-89
2023/09/13 07:40:38;;;;;;;1.33;1.23;;;15.70;99.90;;;;;;5016634;28;20217;-88
2023/09/13 07:43:07;;;;;;;3.00;1.33;;;15.80;99.90;;;;;;5032345;28;20209;-89
2023/09/13 07:45:34;;;;;;;8.13;1.73;;;15.70;99.90;;;;;;5031674;28;20210;-88
2023/09/13 07:48:02;;;;;;;3.33;2.03;;;15.60;99.90;;;;;;5032281;28;20248;-89
2023/09/13 07:50:33;;;;;;;2.10;1.20;;;15.30;99.90;;;;;;5032973;28;20228;-90
2023/09/13 07:52:59;;;;;;;1.20;1.10;;;15.20;99.90;;;;;;5030679;28;20225;-91
2023/09/13 07:55:25;;;;;;;1.20;0.90;;;15.10;99.90;;;;;;5013208;28;20219;-89
2023/09/13 07:57:52;;;;;;;3.47;1.80;;;15.10;99.90;;;;;;4998579;28;20687;-87
2023/09/13 08:00:18;;;;;;;3.93;1.10;;;15.10;99.90;;;;;;5033032;28;20214;-91
2023/09/13 08:02:48;;;;;;;2.73;1.93;;;15.20;99.90;;;;;;5032500;28;20190;-90
2023/09/13 08:05:15;;;;;;;3.23;1.20;;;15.20;99.90;;;;;;5016946;28;20222;-90
2023/09/13 08:07:42;;;;;;;6.53;1.50;;;15.20;99.90;;;;;;5015531;28;20210;-87
2023/09/13 08:10:08;;;;;;;3.07;1.50;;;15.20;99.90;;;;;;5015381;28;20282;-88
2023/09/13 08:12:34;;;;;;;6.57;1.47;;;15.20;99.90;;;;;;5031515;28;20297;-89
2023/09/13 08:15:00;;;;;;;1.40;1.30;;;15.30;99.90;;;;;;5031755;28;20305;-88
2023/09/13 08:17:25;;;;;;;1.83;1.70;;;15.40;99.90;;;;;;5015062;28;20285;-87
2023/09/13 08:19:51;;;;;;;2.47;1.27;;;15.50;99.90;;;;;;5015385;28;20218;-88
2023/09/13 08:22:17;;;;;;;4.40;0.80;;;15.50;99.90;;;;;;5015733;28;20223;-86
2023/09/13 08:24:43;;;;;;;0.80;0.80;;;15.60;99.90;;;;;;5015110;28;20218;-88
2023/09/13 08:27:09;;;;;;;5.60;1.00;;;15.80;99.90;;;;;;5014945;28;20210;-87
2023/09/13 08:29:35;;;;;;;1.37;0.93;;;15.80;99.90;;;;;;5015092;28;20194;-89
2023/09/13 08:32:01;;;;;;;0.57;0.57;;;15.70;99.90;;;;;;5032164;28;20197;-89
2023/09/13 08:34:26;;;;;;;1.43;0.93;;;15.40;99.90;;;;;;5015300;28;20218;-89
2023/09/13 08:36:58;;;;;;;4.60;1.27;;;15.20;99.90;;;;;;5014500;28;20274;-90
2023/09/13 08:39:24;;;;;;;0.53;0.53;;;15.00;99.90;;;;;;5016087;28;20209;-90
2023/09/13 08:41:54;;;;;;;2.30;0.80;;;14.90;99.90;;;;;;5015069;28;20183;-88
2023/09/13 08:44:21;;;;;;;1.00;0.90;;;15.00;99.90;;;;;;5016228;28;20194;-89
2023/09/13 08:46:55;;;;;;;1.67;1.10;;;15.20;99.90;;;;;;5031824;28;20207;-89
2023/09/13 08:49:24;;;;;;;4.43;1.27;;;15.50;99.90;;;;;;5031052;28;20211;-88
2023/09/13 08:51:53;;;;;;;1.07;0.70;;;15.70;99.90;;;;;;5013933;28;20214;-89
2023/09/13 08:54:20;;;;;;;1.17;0.80;;;16.00;99.90;;;;;;5027482;28;20293;-88
2023/09/13 08:56:47;;;;;;;1.13;1.03;;;16.30;99.90;;;;;;5028374;28;20278;-88
2023/09/13 08:59:14;;;;;;;1.07;0.63;;;16.60;99.90;;;;;;5033626;28;20185;-88
2023/09/13 09:01:47;;;;;;;1.57;0.80;;;17.20;99.90;;;;;;5030895;28;20206;-88
2023/09/13 09:04:18;;;;;;;1.77;1.13;;;18.50;99.90;;;;;;5031423;28;20218;-88
2023/09/13 09:06:44;;;;;;;2.47;1.30;;;19.30;99.90;;;;;;5031555;28;20240;-88
2023/09/13 09:09:12;;;;;;;5.83;1.20;;;19.50;99.90;;;;;;5032278;28;20575;-88
2023/09/13 09:11:42;;;;;;;4.40;1.30;;;19.30;99.90;;;;;;5030906;28;20183;-88
2023/09/13 09:14:10;;;;;;;4.37;1.27;;;19.90;99.90;;;;;;5031595;28;20214;-88
2023/09/13 09:16:38;;;;;;;7.80;1.57;;;21.00;99.90;;;;;;5014205;28;20292;-89
2023/09/13 09:19:05;;;;;;;4.53;1.50;;;21.50;99.90;;;;;;5031071;28;20643;-88
2023/09/13 09:21:33;;;;;;;2.83;1.60;;;22.50;99.90;;;;;;5015229;28;20242;-90
2023/09/13 09:23:59;;;;;;;3.47;1.73;;;23.20;99.90;;;;;;5014878;28;20223;-89
2023/09/13 09:26:25;;;;;;;2.13;1.93;;;23.40;99.90;;;;;;5014464;28;20244;-88
2023/09/13 09:28:51;;;;;;;3.67;2.20;;;23.50;99.90;;;;;;5014183;28;20210;-89
2023/09/13 09:31:19;;;;;;;4.32;2.10;;;23.50;99.90;;;;;;5015245;28;20214;-90
2023/09/13 09:33:46;;;;;;;3.20;1.83;;;23.90;99.90;;;;;;5014342;28;20333;-89
2023/09/13 09:36:13;;;;;;;4.03;2.08;;;24.00;99.90;;;;;;5030420;28;20309;-86
2023/09/13 09:38:43;;;;;;;2.67;1.50;;;24.20;99.90;;;;;;5013901;28;20187;-86
2023/09/13 09:41:09;;;;;;;3.13;2.40;;;24.40;99.90;;;;;;5031586;28;20700;-89
2023/09/13 09:43:36;;;;;;;2.47;1.48;;;24.50;99.90;;;;;;5014531;28;20214;-86
2023/09/13 09:46:02;;;;;;;3.58;1.55;;;23.00;99.90;;;;;;5014531;28;20238;-89
2023/09/13 09:48:28;;;;;;;2.05;1.15;;;23.80;99.90;;;;;;5029566;28;20214;-89
2023/09/13 09:50:54;;;;;;;2.13;1.45;;;22.30;99.90;;;;;;5013945;28;20230;-89
2023/09/13 09:53:22;;;;;;;2.25;1.45;;;22.60;99.90;;;;;;5009835;28;20185;-89
2023/09/13 09:55:48;;;;;;;3.00;1.90;;;21.30;99.90;;;;;;5010334;28;20223;-89
2023/09/13 09:58:15;;;;;;;4.43;2.08;;;22.30;99.90;;;;;;5011270;28;20222;-90
2023/09/13 10:00:44;;;;;;;2.08;1.30;;;23.40;99.90;;;;;;5031678;28;20211;-91
2023/09/13 10:03:15;;;;;;;1.73;1.20;;;24.40;99.90;;;;;;5030964;28;20756;-91
2023/09/13 10:06:02;;;;;;;2.85;1.33;;;24.70;99.90;;;;;;5016409;28;20655;-89
2023/09/13 10:08:45;;;;;;;2.75;1.55;;;24.80;99.90;;;;;;5031923;28;20254;-90
2023/09/13 10:11:13;;;;;;;3.03;1.65;;;23.50;99.90;;;;;;5030496;28;20698;-89
2023/09/13 10:13:41;;;;;;;3.40;1.23;;;24.10;99.90;;;;;;5013436;28;20577;-89
2023/09/13 10:16:08;;;;;;;3.42;1.15;;;23.50;99.90;;;;;;5045898;28;20698;-87
2023/09/13 10:18:52;;;;;;;3.60;1.20;;;22.70;99.90;;;;;;5030519;28;20210;-88
2023/09/13 10:21:26;;;;;;;2.25;1.30;;;22.20;99.90;;;;;;5029439;28;20686;-88
2023/09/13 10:23:58;;;;;;;3.13;1.92;;;22.10;99.90;;;;;;5029395;28;20179;-87
2023/09/13 10:26:25;;;;;;;4.90;1.55;;;23.10;99.90;;;;;;5030182;28;20261;-85
2023/09/13 10:28:54;;;;;;;1.77;1.13;;;22.60;99.90;;;;;;5012768;28;20234;-85
2023/09/13 10:31:32;;;;;;;6.35;1.45;;;22.00;99.90;;;;;;5029267;28;20230;-88
2023/09/13 10:34:03;;;;;;;3.53;1.40;;;20.70;99.90;;;;;;5029161;28;20288;-90
2023/09/13 10:36:36;;;;;;;4.88;1.60;;;20.30;99.90;;;;;;5033284;28;20223;-89
2023/09/13 10:39:23;;;;;;;1.85;1.00;;;21.50;99.90;;;;;;5033652;28;20222;-89
2023/09/13 10:42:02;;;;;;;2.50;1.40;;;22.80;99.90;;;;;;5032937;28;20182;-87
2023/09/13 10:44:28;;;;;;;3.25;1.20;;;22.50;99.90;;;;;;5033440;28;20178;-87
2023/09/13 10:46:55;;;;;;;4.13;0.85;;;21.80;99.90;;;;;;5032184;28;20211;-87
2023/09/13 10:49:23;;;;;;;1.77;1.25;;;21.30;99.90;;;;;;5032979;28;20214;-87
2023/09/13 10:51:50;;;;;;;1.20;0.82;;;21.20;99.90;;;;;;5032642;28;20219;-88
2023/09/13 10:54:18;;;;;;;1.40;0.82;;;20.90;99.90;;;;;;5013383;28;20224;-88
2023/09/13 10:56:44;;;;;;;5.35;0.85;;;20.50;99.90;;;;;;5028053;28;20268;-90
2023/09/13 10:59:12;;;;;;;1.52;1.05;;;20.10;99.90;;;;;;5013113;28;20188;-89
2023/09/13 11:01:45;;;;;;;4.15;1.13;;;20.50;99.90;;;;;;5044938;28;20222;-91
2023/09/13 11:04:13;;;;;;;0.88;0.63;;;21.20;99.90;;;;;;5013158;28;20305;-90
2023/09/13 11:06:40;;;;;;;2.87;0.80;;;20.70;99.90;;;;;;5012696;28;20313;-90
2023/09/13 11:09:27;;;;;;;5.30;1.27;;;19.90;99.90;;;;;;5011708;28;20753;-89
2023/09/13 11:11:56;;;;;;;4.20;1.20;;;19.50;99.90;;;;;;5028203;28;20301;-90
2023/09/13 11:14:29;;;;;;;2.20;1.03;;;19.60;99.90;;;;;;5028892;28;20183;-90
2023/09/13 11:17:02;;;;;;;3.37;1.03;;;20.80;99.90;;;;;;5027812;28;20612;-90
2023/09/13 11:19:30;;;;;;;1.43;1.10;;;21.60;99.90;;;;;;5011764;28;20587;-89
2023/09/13 11:22:02;;;;;;;5.18;1.00;;;21.10;99.90;;;;;;5026257;28;20214;-89
2023/09/13 11:24:40;;;;;;;2.73;0.90;;;21.60;99.90;;;;;;5026536;28;20219;-90
2023/09/13 11:27:20;;;;;;;1.73;1.33;;;21.30;99.90;;;;;;5026344;28;20202;-90
2023/09/13 11:29:52;;;;;;;2.28;0.98;;;20.40;99.90;;;;;;5032943;28;20220;-89
2023/09/13 11:32:25;;;;;;;0.75;0.75;;;20.70;99.90;;;;;;5027304;28;20175;-89
2023/09/13 11:34:59;;;;;;;1.45;1.30;;;20.50;99.90;;;;;;5016349;28;20258;-88
2023/09/13 11:37:27;;;;;;;6.10;1.17;;;20.40;99.90;;;;;;5010883;28;20633;-89
2023/09/13 11:40:13;;;;;;;2.87;1.00;;;20.60;99.90;;;;;;5025879;28;20272;-90
2023/09/13 11:42:41;;;;;;;4.93;0.80;;;20.00;99.90;;;;;;5042710;28;20226;-89
2023/09/13 11:45:08;;;;;;;1.60;0.80;;;19.60;99.90;;;;;;5025947;28;20252;-89
2023/09/13 11:47:36;;;;;;;2.20;1.20;;;19.20;99.90;;;;;;5018628;28;20274;-88
2023/09/13 11:50:03;;;;;;;2.93;1.03;;;19.10;99.90;;;;;;5044329;28;20596;-90
2023/09/13 11:53:11;;;;;;;1.33;1.00;;;18.90;99.90;;;;;;5024833;28;20621;-91
2023/09/13 11:55:44;;;;;;;3.47;0.83;;;19.00;99.90;;;;;;5008708;28;20222;-91
2023/09/13 11:58:32;;;;;;;0.90;0.80;;;18.90;99.90;;;;;;5024987;28;20218;-90
2023/09/13 12:00:59;;;;;;;1.97;1.20;;;18.70;99.90;;;;;;5025528;28;20242;-89
2023/09/13 12:03:28;;;;;;;4.20;1.10;;;18.20;99.90;;;;;;5027721;28;20214;-89
2023/09/13 12:05:55;;;;;;;3.17;0.80;;;17.80;99.90;;;;;;5028746;28;20329;-90
2023/09/13 12:08:29;;;;;;;3.90;0.83;;;17.50;99.90;;;;;;5028257;28;20175;-89
2023/09/13 12:10:56;;;;;;;4.13;1.40;;;17.40;99.90;;;;;;5026834;28;20284;-90
2023/09/13 12:13:43;;;;;;;2.00;0.70;;;17.20;99.90;;;;;;5005836;28;20206;-89
2023/09/13 12:16:09;;;;;;;1.70;1.07;;;16.50;99.90;;;;;;5020171;28;20305;-89
2023/09/13 12:18:37;;;;;;;5.23;1.13;;;16.40;99.90;;;;;;5025864;28;20203;-88
2023/09/13 12:21:04;;;;;;;2.83;0.93;;;16.50;99.90;;;;;;5025684;28;20702;-88
2023/09/13 12:23:40;;;;;;;4.57;0.73;;;16.40;99.90;;;;;;5026823;28;20531;-88
2023/09/13 12:26:11;;;;;;;0.80;0.80;;;16.20;99.90;;;;;;5025638;28;20863;-88
2023/09/13 12:28:42;;;;;;;0.60;0.50;;;16.40;99.90;;;;;;5024447;28;20215;-87
2023/09/13 12:31:09;;;;;;;1.80;0.93;;;16.50;99.90;;;;;;5025343;28;20215;-88
2023/09/13 12:33:37;;;;;;;2.60;0.90;;;16.50;99.90;;;;;;5042052;28;22462;-88
2023/09/13 12:36:04;;;;;;;2.07;1.33;;;16.60;99.90;;;;;;5025462;28;20234;-87
2023/09/13 12:38:42;;;;;;;5.77;1.63;;;17.00;99.90;;;;;;5026444;28;21023;-88
2023/09/13 12:41:14;;;;;;;3.23;1.20;;;17.20;99.90;;;;;;5042937;28;20210;-89
2023/09/13 12:43:44;;;;;;;8.90;1.50;;;17.40;99.90;;;;;;5024290;28;20749;-88
2023/09/13 12:46:14;;;;;;;0.90;0.60;;;17.60;99.90;;;;;;5025006;28;20209;-88
2023/09/13 12:48:41;;;;;;;3.27;0.70;;;17.70;99.90;;;;;;5024040;28;20215;-88
2023/09/13 12:51:07;;;;;;;3.20;1.00;;;17.70;99.90;;;;;;5009248;28;20214;-90